createdAt,value
2022-07-29T00:02:26.459Z,6.35
2022-07-29T00:04:54.124Z,6.57
2022-07-29T00:07:21.361Z,6.35
2022-07-29T00:09:51.687Z,6.35
2022-07-29T00:12:21.373Z,6.28
2022-07-29T00:14:56.336Z,6.03
2022-07-29T00:17:24.284Z,5.85
2022-07-29T00:19:51.095Z,6.00
2022-07-29T00:22:17.980Z,5.68
2022-07-29T00:24:44.661Z,5.75
2022-07-29T00:27:11.280Z,5.50
2022-07-29T00:29:37.924Z,5.15
2022-07-29T00:32:04.869Z,6.03
2022-07-29T00:34:50.549Z,5.97
2022-07-29T00:37:17.243Z,5.82
2022-07-29T00:39:44.035Z,5.90
2022-07-29T00:42:10.967Z,5.78
2022-07-29T00:44:42.691Z,5.38
2022-07-29T00:47:11.471Z,4.88
2022-07-29T00:49:40.865Z,5.70
2022-07-29T00:52:09.489Z,5.45
2022-07-29T00:54:43.797Z,6.40
2022-07-29T00:57:12.645Z,5.63
2022-07-29T00:59:39.407Z,5.95
2022-07-29T01:02:06.463Z,6.13
2022-07-29T01:04:33.658Z,5.68
2022-07-29T01:07:03.735Z,6.75
2022-07-29T01:09:45.194Z,5.65
2022-07-29T01:12:20.083Z,4.63
2022-07-29T01:14:48.807Z,4.70
2022-07-29T01:17:23.163Z,4.50
2022-07-29T01:20:04.699Z,4.45
2022-07-29T01:22:53.018Z,5.13
2022-07-29T01:25:57.047Z,4.80
2022-07-29T01:28:42.951Z,5.38
2022-07-29T01:31:13.480Z,7.03
2022-07-29T01:33:59.195Z,6.85
2022-07-29T01:36:41.397Z,5.50
2022-07-29T01:39:17.990Z,5.22
2022-07-29T01:41:56.063Z,4.40
2022-07-29T01:44:35.466Z,4.03
2022-07-29T01:47:16.729Z,4.53
2022-07-29T01:49:48.799Z,4.60
2022-07-29T01:52:32.133Z,4.50
2022-07-29T01:55:03.814Z,4.50
2022-07-29T01:57:33.319Z,4.40
2022-07-29T02:00:01.892Z,4.35
2022-07-29T02:02:31.938Z,4.60
2022-07-29T02:05:01.338Z,4.15
2022-07-29T02:07:32.733Z,4.35
2022-07-29T02:10:01.587Z,4.70
2022-07-29T02:12:30.390Z,4.35
2022-07-29T02:15:01.782Z,4.25
2022-07-29T02:17:40.975Z,4.75
2022-07-29T02:20:09.878Z,4.50
2022-07-29T02:22:39.197Z,4.20
2022-07-29T02:25:14.026Z,4.63
2022-07-29T02:27:42.603Z,4.53
2022-07-29T02:30:11.161Z,4.68
2022-07-29T02:32:41.185Z,4.70
2022-07-29T02:35:09.730Z,4.50
2022-07-29T02:37:37.977Z,4.22
2022-07-29T02:40:07.031Z,4.20
2022-07-29T02:42:37.028Z,4.78
2022-07-29T02:45:04.560Z,3.72
2022-07-29T02:47:41.468Z,4.43
2022-07-29T02:50:27.137Z,4.05
2022-07-29T02:53:14.001Z,4.75
2022-07-29T02:55:46.773Z,4.00
2022-07-29T02:58:46.150Z,4.55
2022-07-29T03:01:21.750Z,4.50
2022-07-29T03:03:50.485Z,4.60
2022-07-29T03:06:28.100Z,4.60
2022-07-29T03:09:06.714Z,4.32
2022-07-29T03:11:42.469Z,4.70
2022-07-29T03:14:18.467Z,4.00
2022-07-29T03:16:45.946Z,4.15
2022-07-29T03:19:12.996Z,4.38
2022-07-29T03:21:40.007Z,4.43
2022-07-29T03:24:12.520Z,4.50
2022-07-29T03:26:39.277Z,4.57
2022-07-29T03:29:05.940Z,5.40
2022-07-29T03:31:33.719Z,4.88
2022-07-29T03:34:00.977Z,4.50
2022-07-29T03:36:27.810Z,4.57
2022-07-29T03:38:55.702Z,4.95
2022-07-29T03:41:24.877Z,4.72
2022-07-29T03:43:53.639Z,5.00
2022-07-29T03:46:23.660Z,5.05
2022-07-29T03:48:54.107Z,4.85
2022-07-29T03:51:33.488Z,5.03
2022-07-29T03:54:07.704Z,4.53
2022-07-29T03:56:40.777Z,5.65
2022-07-29T03:59:08.576Z,4.72
2022-07-29T04:01:36.410Z,4.75
2022-07-29T04:04:03.664Z,4.78
2022-07-29T04:06:30.420Z,5.25
2022-07-29T04:08:57.117Z,5.07
2022-07-29T04:11:23.938Z,5.03
2022-07-29T04:13:50.592Z,5.20
2022-07-29T04:16:17.261Z,5.20
2022-07-29T04:18:43.959Z,4.90
2022-07-29T04:21:10.589Z,5.45
2022-07-29T04:23:47.615Z,5.40
2022-07-29T04:28:47.868Z,5.07
2022-07-29T04:31:14.819Z,4.03
2022-07-29T04:33:41.570Z,3.83
2022-07-29T04:36:26.842Z,3.95
2022-07-29T04:38:54.949Z,4.05
2022-07-29T04:41:21.613Z,4.35
2022-07-29T04:43:48.643Z,4.75
2022-07-29T04:46:15.402Z,4.75
2022-07-29T04:48:42.275Z,4.60
2022-07-29T04:51:09.106Z,5.03
2022-07-29T04:53:35.836Z,5.03
2022-07-29T04:56:03.244Z,4.45
2022-07-29T04:58:29.871Z,4.57
2022-07-29T05:00:56.634Z,4.90
2022-07-29T05:03:23.292Z,5.13
2022-07-29T05:05:49.933Z,4.60
2022-07-29T05:08:16.593Z,4.97
2022-07-29T05:10:43.371Z,4.60
2022-07-29T05:13:10.114Z,4.55
2022-07-29T05:15:37.670Z,4.65
2022-07-29T05:18:04.927Z,5.20
2022-07-29T05:20:31.841Z,4.82
2022-07-29T05:23:00.086Z,4.25
2022-07-29T05:25:42.007Z,4.55
2022-07-29T05:28:12.620Z,4.10
2022-07-29T05:30:39.501Z,4.00
2022-07-29T05:33:06.274Z,4.20
2022-07-29T05:35:33.023Z,4.10
2022-07-29T05:37:59.663Z,5.30
2022-07-29T05:40:26.328Z,6.13
2022-07-29T05:42:53.023Z,6.43
2022-07-29T05:45:19.651Z,5.18
2022-07-29T05:47:46.620Z,4.38
2022-07-29T05:50:13.516Z,4.40
2022-07-29T05:52:40.418Z,4.32
2022-07-29T05:55:07.311Z,4.57
2022-07-29T05:57:34.133Z,5.30
2022-07-29T06:00:00.755Z,4.97
2022-07-29T06:02:27.428Z,5.07
2022-07-29T06:04:54.788Z,4.50
2022-07-29T06:07:21.923Z,4.45
2022-07-29T06:09:48.606Z,4.38
2022-07-29T06:12:15.499Z,4.85
2022-07-29T06:14:42.154Z,3.85
2022-07-29T06:17:08.932Z,4.18
2022-07-29T06:19:37.314Z,4.28
2022-07-29T06:22:04.534Z,4.40
2022-07-29T06:24:31.750Z,4.22
2022-07-29T06:26:58.434Z,4.10
2022-07-29T06:29:25.483Z,4.10
2022-07-29T06:31:52.132Z,4.47
2022-07-29T06:34:19.229Z,3.72
2022-07-29T06:36:47.619Z,3.78
2022-07-29T06:39:15.531Z,4.30
2022-07-29T06:41:42.297Z,4.10
2022-07-29T06:44:09.056Z,4.10
2022-07-29T06:46:35.866Z,4.28
2022-07-29T06:49:03.405Z,4.30
2022-07-29T06:51:30.290Z,4.72
2022-07-29T06:54:02.306Z,4.50
2022-07-29T06:56:39.124Z,4.13
2022-07-29T06:59:08.133Z,4.57
2022-07-29T07:01:35.221Z,4.22
2022-07-29T07:04:01.918Z,4.10
2022-07-29T07:06:28.726Z,3.92
2022-07-29T07:08:55.558Z,4.18
2022-07-29T07:11:22.427Z,4.32
2022-07-29T07:13:49.272Z,4.00
2022-07-29T07:16:16.155Z,4.60
2022-07-29T07:18:43.096Z,4.68
2022-07-29T07:21:09.889Z,4.50
2022-07-29T07:23:36.569Z,4.50
2022-07-29T07:26:04.155Z,3.88
2022-07-29T07:28:30.801Z,4.93
2022-07-29T07:30:57.535Z,4.82
2022-07-29T07:33:24.311Z,5.13
2022-07-29T07:35:50.949Z,4.88
2022-07-29T07:38:17.656Z,4.45
2022-07-29T07:40:44.455Z,4.88
2022-07-29T07:43:11.121Z,4.63
2022-07-29T07:45:38.559Z,4.47
2022-07-29T07:48:06.161Z,4.97
2022-07-29T07:50:33.280Z,4.95
2022-07-29T07:53:00.627Z,4.53
2022-07-29T07:55:27.661Z,4.93
2022-07-29T07:57:55.660Z,4.85
2022-07-29T08:00:23.689Z,4.53
2022-07-29T08:02:51.516Z,4.57
2022-07-29T08:05:18.963Z,4.20
2022-07-29T08:07:47.407Z,4.93
2022-07-29T08:10:37.624Z,4.38
2022-07-29T08:13:09.342Z,5.03
2022-07-29T08:15:36.413Z,5.03
2022-07-29T08:18:08.368Z,3.95
2022-07-29T08:20:36.771Z,5.03
2022-07-29T08:23:05.387Z,4.13
2022-07-29T08:25:32.110Z,4.35
2022-07-29T08:28:00.367Z,4.10
2022-07-29T08:30:27.017Z,3.83
2022-07-29T08:32:55.465Z,4.20
2022-07-29T08:35:24.227Z,4.38
2022-07-29T08:37:51.596Z,3.85
2022-07-29T08:40:18.380Z,3.78
2022-07-29T08:42:45.833Z,4.50
2022-07-29T08:45:13.091Z,4.30
2022-07-29T08:47:40.925Z,4.40
2022-07-29T08:50:12.006Z,3.92
2022-07-29T08:52:40.861Z,3.65
2022-07-29T08:55:09.454Z,3.97
2022-07-29T08:57:37.252Z,4.00
2022-07-29T09:00:08.129Z,4.03
2022-07-29T09:02:44.631Z,4.03
2022-07-29T09:05:13.764Z,3.80
2022-07-29T09:07:40.660Z,4.00
2022-07-29T09:10:07.958Z,3.10
2022-07-29T09:12:38.075Z,3.63
2022-07-29T09:15:05.294Z,3.88
2022-07-29T09:17:50.872Z,3.40
2022-07-29T09:20:21.108Z,3.50
2022-07-29T09:22:50.649Z,4.03
2022-07-29T09:25:36.868Z,4.18
2022-07-29T09:28:15.303Z,3.83
2022-07-29T09:30:55.859Z,3.75
2022-07-29T09:33:24.215Z,3.55
2022-07-29T09:36:04.068Z,3.60
2022-07-29T09:38:33.577Z,3.38
2022-07-29T09:41:06.752Z,3.28
2022-07-29T09:43:34.388Z,2.78
2022-07-29T09:46:27.207Z,3.08
2022-07-29T09:49:10.140Z,3.50
2022-07-29T09:51:38.143Z,3.20
2022-07-29T09:54:24.441Z,3.03
2022-07-29T09:56:51.603Z,3.08
2022-07-29T09:59:18.323Z,3.45
2022-07-29T10:01:44.966Z,2.95
2022-07-29T10:04:11.655Z,3.22
2022-07-29T10:07:03.594Z,3.60
2022-07-29T10:09:31.475Z,3.53
2022-07-29T10:12:14.740Z,3.70
2022-07-29T10:14:43.036Z,3.42
2022-07-29T10:17:11.275Z,3.60
2022-07-29T10:19:39.268Z,3.70
2022-07-29T10:22:09.501Z,3.70
2022-07-29T10:24:38.320Z,3.35
2022-07-29T10:27:07.118Z,3.47
2022-07-29T10:29:34.063Z,3.20
2022-07-29T10:32:53.773Z,3.38
2022-07-29T10:35:35.741Z,2.95
2022-07-29T10:38:08.060Z,3.55
2022-07-29T10:43:29.924Z,3.28
2022-07-29T10:46:01.040Z,2.92
2022-07-29T10:48:28.088Z,2.95
2022-07-29T10:51:01.128Z,2.65
2022-07-29T10:53:48.934Z,2.83
2022-07-29T10:56:25.594Z,2.83
2022-07-29T10:59:21.737Z,2.70
2022-07-29T11:01:52.715Z,2.80
2022-07-29T11:04:45.766Z,2.80
2022-07-29T11:09:41.955Z,2.83
2022-07-29T11:12:38.733Z,3.10
2022-07-29T11:15:09.159Z,3.25
2022-07-29T11:18:03.292Z,2.80
2022-07-29T11:20:40.095Z,3.00
2022-07-29T11:23:19.016Z,2.40
2022-07-29T11:25:50.638Z,3.00
2022-07-29T11:28:25.369Z,2.80
2022-07-29T11:30:54.399Z,2.85
2022-07-29T11:33:54.660Z,2.70
2022-07-29T11:36:28.262Z,3.70
2022-07-29T11:39:26.547Z,3.17
2022-07-29T11:42:28.308Z,2.70
2022-07-29T11:45:04.302Z,3.78
2022-07-29T11:47:47.816Z,3.92
2022-07-29T11:50:28.368Z,3.58
2022-07-29T11:52:55.658Z,3.88
2022-07-29T11:55:32.500Z,3.65
2022-07-29T11:58:04.138Z,4.70
2022-07-29T12:00:37.171Z,4.90
2022-07-29T12:03:06.373Z,4.47
2022-07-29T12:05:51.858Z,3.92
2022-07-29T12:08:20.877Z,4.20
2022-07-29T12:10:49.486Z,4.05
2022-07-29T12:13:18.204Z,3.78
2022-07-29T12:15:54.588Z,3.40
2022-07-29T12:18:24.369Z,3.55
2022-07-29T12:20:58.527Z,4.03
2022-07-29T12:23:25.190Z,3.70
2022-07-29T12:25:56.622Z,3.90
2022-07-29T12:28:26.604Z,3.65
2022-07-29T12:30:53.881Z,3.88
2022-07-29T12:33:27.534Z,3.45
2022-07-29T12:36:09.473Z,3.67
2022-07-29T12:38:41.425Z,3.47
2022-07-29T12:41:08.205Z,3.05
2022-07-29T12:43:35.000Z,3.45
2022-07-29T12:46:16.115Z,3.50
2022-07-29T12:48:44.536Z,2.63
2022-07-29T12:51:15.417Z,2.47
2022-07-29T12:53:42.255Z,2.50
2022-07-29T12:59:21.455Z,2.53
2022-07-29T13:01:50.852Z,2.30
2022-07-29T13:04:29.226Z,2.00
2022-07-29T13:07:10.389Z,2.50
2022-07-29T13:09:43.035Z,2.50
2022-07-29T13:12:14.314Z,2.50
2022-07-29T13:14:47.181Z,2.80
2022-07-29T13:17:20.282Z,2.30
2022-07-29T13:19:52.379Z,2.90
2022-07-29T13:22:24.470Z,2.67
2022-07-29T13:24:56.523Z,2.20
2022-07-29T13:27:28.340Z,2.20
2022-07-29T13:30:00.520Z,2.20
2022-07-29T13:35:01.176Z,2.25
2022-07-29T13:37:33.959Z,2.40
2022-07-29T13:40:01.216Z,2.40
2022-07-29T13:42:27.907Z,2.70
2022-07-29T13:44:54.804Z,2.30
2022-07-29T13:47:22.184Z,2.08
2022-07-29T13:49:49.463Z,2.45
2022-07-29T13:52:16.766Z,1.90
2022-07-29T13:54:44.255Z,1.70
2022-07-29T13:57:12.069Z,1.80
2022-07-29T13:59:40.245Z,2.10
2022-07-29T14:02:07.228Z,2.00
2022-07-29T14:04:34.584Z,1.70
2022-07-29T14:07:03.629Z,1.42
2022-07-29T14:09:41.102Z,2.20
2022-07-29T14:12:08.746Z,2.33
2022-07-29T14:14:36.617Z,1.95
2022-07-29T14:17:04.373Z,1.98
2022-07-29T14:19:33.078Z,1.50
2022-07-29T14:22:00.169Z,2.03
2022-07-29T14:24:27.198Z,1.80
2022-07-29T14:26:53.879Z,2.03
2022-07-29T14:29:20.637Z,1.85
2022-07-29T14:31:47.331Z,1.90
2022-07-29T14:34:14.160Z,1.90
2022-07-29T14:36:40.805Z,1.60
2022-07-29T14:39:07.875Z,1.55
2022-07-29T14:41:34.798Z,1.88
2022-07-29T14:44:04.243Z,1.58
2022-07-29T14:46:31.018Z,1.50
2022-07-29T14:48:57.818Z,1.55
2022-07-29T14:51:24.531Z,1.50
2022-07-29T14:53:59.368Z,1.90
2022-07-29T14:56:46.501Z,2.08
2022-07-29T14:59:12.742Z,2.05
2022-07-29T15:01:39.513Z,1.60
2022-07-29T15:04:06.232Z,1.83
2022-07-29T15:06:32.873Z,1.55
2022-07-29T15:08:59.532Z,1.70
2022-07-29T15:11:26.535Z,1.73
2022-07-29T15:13:53.189Z,1.60
2022-07-29T15:16:19.893Z,1.77
2022-07-29T15:18:46.629Z,1.90
2022-07-29T15:21:13.239Z,1.85
2022-07-29T15:23:40.078Z,1.80
2022-07-29T15:26:06.756Z,1.75
2022-07-29T15:28:33.484Z,1.60
2022-07-29T15:31:00.129Z,1.83
2022-07-29T15:33:27.395Z,1.98
2022-07-29T15:35:54.109Z,2.15
2022-07-29T15:38:20.787Z,1.48
2022-07-29T15:40:55.762Z,2.03
2022-07-29T15:43:22.742Z,1.80
2022-07-29T15:46:08.083Z,1.90
2022-07-29T15:48:39.136Z,1.88
2022-07-29T15:51:05.889Z,1.80
2022-07-29T15:53:32.547Z,1.88
2022-07-29T15:56:02.212Z,1.90
2022-07-29T15:58:29.156Z,1.92
2022-07-29T16:00:56.226Z,1.80
2022-07-29T16:03:23.029Z,2.05
2022-07-29T16:05:49.681Z,1.90
2022-07-29T16:08:16.433Z,2.05
2022-07-29T16:10:43.198Z,1.80
2022-07-29T16:13:09.864Z,1.92
2022-07-29T16:15:36.510Z,2.10
2022-07-29T16:18:03.325Z,2.38
2022-07-29T16:20:30.270Z,2.00
2022-07-29T16:22:57.044Z,1.80
2022-07-29T16:25:38.366Z,1.90
2022-07-29T16:28:10.752Z,1.80
2022-07-29T16:30:37.430Z,2.05
2022-07-29T16:33:08.259Z,2.10
2022-07-29T16:35:39.813Z,2.30
2022-07-29T16:38:06.954Z,2.20
2022-07-29T16:40:33.652Z,2.10
2022-07-29T16:43:00.281Z,2.10
2022-07-29T16:45:27.061Z,2.40
2022-07-29T16:48:04.827Z,2.00
2022-07-29T16:50:33.165Z,2.35
2022-07-29T16:52:59.988Z,2.33
2022-07-29T16:55:26.775Z,2.30
2022-07-29T16:57:53.435Z,2.65
2022-07-29T17:00:21.921Z,2.08
2022-07-29T17:02:49.055Z,2.25
2022-07-29T17:05:16.116Z,2.28
2022-07-29T17:07:42.901Z,2.67
2022-07-29T17:10:10.445Z,2.83
2022-07-29T17:12:40.794Z,2.65
2022-07-29T17:15:10.907Z,2.35
2022-07-29T17:17:39.404Z,2.47
2022-07-29T17:20:21.654Z,2.72
2022-07-29T17:22:48.574Z,2.60
2022-07-29T17:25:21.140Z,2.45
2022-07-29T17:27:49.742Z,2.65
2022-07-29T17:30:16.891Z,2.80
2022-07-29T17:32:43.564Z,2.60
2022-07-29T17:35:29.003Z,2.97
2022-07-29T17:37:56.269Z,2.67
2022-07-29T17:40:23.178Z,2.80
2022-07-29T17:42:50.355Z,2.80
2022-07-29T17:45:17.103Z,3.10
2022-07-29T17:47:45.062Z,2.40
2022-07-29T17:50:11.757Z,2.75
2022-07-29T17:52:40.766Z,2.70
2022-07-29T17:55:10.280Z,2.80
2022-07-29T17:57:37.147Z,2.97
2022-07-29T18:00:08.347Z,6.68
2022-07-29T18:02:37.550Z,3.20
2022-07-29T18:05:05.218Z,3.03
2022-07-29T18:07:31.952Z,3.25
2022-07-29T18:10:00.575Z,3.55
2022-07-29T18:12:28.351Z,5.15
2022-07-29T18:14:55.051Z,5.55
2022-07-29T18:17:21.720Z,4.93
2022-07-29T18:20:01.221Z,4.93
2022-07-29T18:22:27.867Z,4.75
2022-07-29T18:24:54.843Z,4.28
2022-07-29T18:27:21.467Z,3.70
2022-07-29T18:29:51.281Z,3.58
2022-07-29T18:32:17.951Z,3.80
2022-07-29T18:34:55.289Z,3.58
2022-07-29T18:38:01.383Z,3.75
2022-07-29T18:40:10.726Z,3.67
2022-07-29T18:42:40.893Z,3.45
2022-07-29T18:45:12.139Z,4.25
2022-07-29T18:47:47.535Z,3.58
2022-07-29T18:50:14.755Z,3.70
2022-07-29T18:52:41.844Z,3.85
2022-07-29T18:55:08.821Z,3.67
2022-07-29T18:57:55.456Z,3.38
2022-07-29T19:00:22.812Z,3.22
2022-07-29T19:02:49.973Z,3.40
2022-07-29T19:05:16.726Z,3.10
2022-07-29T19:07:43.403Z,2.70
2022-07-29T19:10:10.336Z,2.97
2022-07-29T19:12:37.069Z,2.40
2022-07-29T19:15:03.984Z,2.50
2022-07-29T19:17:39.331Z,2.10
2022-07-29T19:20:07.450Z,2.33
2022-07-29T19:22:34.486Z,2.40
2022-07-29T19:25:01.349Z,2.72
2022-07-29T19:27:28.107Z,2.97
2022-07-29T19:29:59.060Z,2.90
2022-07-29T19:32:26.311Z,2.85
2022-07-29T19:35:11.558Z,2.80
2022-07-29T19:37:38.256Z,2.70
2022-07-29T19:40:06.250Z,2.95
2022-07-29T19:42:33.227Z,3.15
2022-07-29T19:45:00.079Z,2.60
2022-07-29T19:47:26.864Z,2.90
2022-07-29T19:49:53.479Z,3.10
2022-07-29T19:52:20.142Z,2.88
2022-07-29T19:54:46.819Z,2.95
2022-07-29T19:57:13.610Z,2.97
2022-07-29T19:59:41.220Z,3.00
2022-07-29T20:02:10.959Z,2.70
2022-07-29T20:04:38.591Z,2.53
2022-07-29T20:07:06.261Z,2.95
2022-07-29T20:09:33.006Z,2.63
2022-07-29T20:11:59.658Z,2.75
2022-07-29T20:14:26.396Z,2.90
2022-07-29T20:16:54.536Z,2.70
2022-07-29T20:19:21.547Z,3.00
2022-07-29T20:21:48.305Z,2.95
2022-07-29T20:24:15.046Z,2.65
2022-07-29T20:26:41.764Z,2.88
2022-07-29T20:29:08.468Z,2.70
2022-07-29T20:31:35.147Z,2.97
2022-07-29T20:34:02.089Z,2.83
2022-07-29T20:36:28.785Z,2.45
2022-07-29T20:38:56.278Z,2.75
2022-07-29T20:41:23.359Z,2.90
2022-07-29T20:43:50.181Z,2.40
2022-07-29T20:46:18.739Z,2.60
2022-07-29T20:48:47.005Z,2.33
2022-07-29T20:51:14.618Z,2.80
2022-07-29T20:53:41.819Z,3.20
2022-07-29T20:56:08.659Z,2.95
2022-07-29T20:58:36.570Z,3.00
2022-07-29T21:01:05.032Z,2.83
2022-07-29T21:03:32.637Z,3.40
2022-07-29T21:06:00.042Z,3.17
2022-07-29T21:08:26.913Z,2.60
2022-07-29T21:10:54.190Z,2.90
2022-07-29T21:13:22.455Z,2.00
2022-07-29T21:15:50.461Z,2.47
2022-07-29T21:18:36.928Z,2.17
2022-07-29T21:21:05.030Z,2.50
2022-07-29T21:23:31.936Z,2.30
2022-07-29T21:25:59.898Z,2.17
2022-07-29T21:28:26.742Z,2.30
2022-07-29T21:30:55.433Z,2.47
2022-07-29T21:33:22.328Z,2.25
2022-07-29T21:36:20.600Z,3.00
2022-07-29T21:38:37.052Z,2.60
2022-07-29T21:41:04.918Z,2.30
2022-07-29T21:43:31.705Z,2.30
2022-07-29T21:45:59.819Z,2.30
2022-07-29T21:48:28.075Z,2.40
2022-07-29T21:50:54.804Z,2.70
2022-07-29T21:53:23.001Z,2.50
2022-07-29T21:55:56.936Z,2.40
2022-07-29T21:58:24.820Z,2.70
2022-07-29T22:00:51.786Z,2.33
2022-07-29T22:03:18.469Z,2.35
2022-07-29T22:05:45.134Z,2.50
2022-07-29T22:08:11.819Z,2.63
2022-07-29T22:10:38.584Z,2.70
2022-07-29T22:13:05.289Z,2.50
2022-07-29T22:15:32.392Z,2.30
2022-07-29T22:17:59.498Z,2.92
2022-07-29T22:20:26.626Z,2.13
2022-07-29T22:22:53.920Z,2.67
2022-07-29T22:25:21.303Z,2.15
2022-07-29T22:27:48.109Z,2.40
2022-07-29T22:30:15.465Z,2.30
2022-07-29T22:32:42.262Z,2.20
2022-07-29T22:35:09.280Z,2.30
2022-07-29T22:37:36.228Z,2.47
2022-07-29T22:40:03.178Z,2.22
2022-07-29T22:42:30.459Z,2.25
2022-07-29T22:44:57.117Z,2.50
2022-07-29T22:47:45.814Z,2.72
2022-07-29T22:50:10.528Z,2.53
2022-07-29T22:52:37.247Z,2.40
2022-07-29T22:55:05.327Z,2.20
2022-07-29T22:57:31.975Z,2.20
2022-07-29T23:00:01.658Z,2.15
2022-07-29T23:02:28.950Z,2.30
2022-07-29T23:04:55.602Z,2.53
2022-07-29T23:07:22.378Z,2.35
2022-07-29T23:09:49.038Z,2.40
2022-07-29T23:12:15.691Z,2.30
2022-07-29T23:14:42.351Z,2.30
2022-07-29T23:17:09.043Z,2.28
2022-07-29T23:19:36.402Z,2.30
2022-07-29T23:22:03.047Z,2.50
2022-07-29T23:24:29.671Z,2.50
2022-07-29T23:26:56.390Z,2.22
2022-07-29T23:29:23.027Z,2.10
2022-07-29T23:31:49.672Z,2.33
2022-07-29T23:34:16.383Z,2.05
2022-07-29T23:36:43.061Z,2.22
2022-07-29T23:39:13.498Z,2.33
2022-07-29T23:41:40.764Z,2.17
2022-07-29T23:44:07.590Z,2.10
2022-07-29T23:46:34.363Z,2.05
2022-07-29T23:49:01.154Z,2.55
2022-07-29T23:51:29.316Z,2.42
2022-07-29T23:53:56.531Z,2.60
2022-07-29T23:56:23.895Z,2.03
2022-07-29T23:58:50.577Z,1.92
